createdAt,value
2019-03-27T00:00:10.318Z,48.45
2019-03-27T00:02:39.100Z,46.50
2019-03-27T00:05:07.872Z,48.48
2019-03-27T00:07:36.744Z,49.65
2019-03-27T00:10:07.960Z,50.70
2019-03-27T00:12:37.754Z,51.40
2019-03-27T00:15:13.134Z,49.85
2019-03-27T00:17:40.549Z,51.75
2019-03-27T00:20:09.501Z,51.02
2019-03-27T00:22:38.374Z,51.15
2019-03-27T00:25:09.824Z,44.38
2019-03-27T00:27:38.593Z,43.98
2019-03-27T00:30:08.633Z,49.00
2019-03-27T00:32:37.446Z,51.42
2019-03-27T00:35:07.220Z,51.98
2019-03-27T00:37:36.062Z,53.08
2019-03-27T00:40:08.140Z,51.30
2019-03-27T00:42:36.920Z,46.65
2019-03-27T00:45:09.629Z,54.40
2019-03-27T00:47:38.474Z,55.10
2019-03-27T00:50:07.979Z,48.73
2019-03-27T00:52:36.787Z,46.53
2019-03-27T00:55:06.470Z,40.98
2019-03-27T00:57:35.251Z,56.98
2019-03-27T01:00:19.113Z,51.58
2019-03-27T01:02:47.883Z,62.08
2019-03-27T01:05:16.663Z,48.75
2019-03-27T01:07:45.458Z,50.67
2019-03-27T01:10:14.318Z,52.98
2019-03-27T01:12:43.091Z,55.78
2019-03-27T01:15:11.889Z,51.08
2019-03-27T01:17:40.725Z,53.63
2019-03-27T01:20:09.500Z,52.08
2019-03-27T01:22:38.299Z,55.08
2019-03-27T01:25:07.154Z,43.95
2019-03-27T01:27:35.982Z,51.60
2019-03-27T01:30:05.634Z,54.45
2019-03-27T01:32:34.412Z,61.98
2019-03-27T01:35:03.538Z,61.48
2019-03-27T01:37:32.333Z,52.48
2019-03-27T01:40:01.125Z,55.55
2019-03-27T01:42:29.907Z,47.58
2019-03-27T01:44:58.709Z,49.18
2019-03-27T01:47:27.473Z,46.60
2019-03-27T01:49:56.245Z,49.40
2019-03-27T01:52:25.039Z,44.05
2019-03-27T01:54:55.949Z,56.35
2019-03-27T01:57:25.113Z,52.30
2019-03-27T01:59:54.064Z,37.90
2019-03-27T02:02:22.904Z,45.70
2019-03-27T02:04:51.687Z,54.55
2019-03-27T02:07:20.498Z,58.55
2019-03-27T02:09:49.264Z,62.88
2019-03-27T02:12:18.033Z,48.45
2019-03-27T02:14:46.841Z,47.58
2019-03-27T02:17:15.710Z,49.60
2019-03-27T02:19:44.840Z,49.35
2019-03-27T02:22:13.934Z,53.55
2019-03-27T02:24:42.769Z,50.88
2019-03-27T02:27:11.546Z,54.65
2019-03-27T02:29:40.414Z,60.65
2019-03-27T02:32:09.183Z,62.78
2019-03-27T02:34:38.016Z,54.48
2019-03-27T02:37:07.208Z,67.72
2019-03-27T02:39:36.045Z,60.90
2019-03-27T02:42:04.914Z,60.15
2019-03-27T02:44:33.813Z,48.45
2019-03-27T02:47:02.659Z,56.75
2019-03-27T02:49:31.438Z,53.73
2019-03-27T02:52:00.530Z,52.55
2019-03-27T02:54:29.331Z,60.55
2019-03-27T02:56:58.170Z,54.45
2019-03-27T02:59:26.988Z,52.27
2019-03-27T03:01:55.838Z,49.65
2019-03-27T03:04:24.685Z,63.70
2019-03-27T03:06:53.510Z,67.95
2019-03-27T03:09:22.364Z,53.78
2019-03-27T03:11:51.466Z,55.28
2019-03-27T03:14:20.345Z,59.63
2019-03-27T03:16:49.116Z,56.15
2019-03-27T03:19:17.893Z,50.43
2019-03-27T03:21:46.861Z,45.88
2019-03-27T03:24:15.656Z,49.05
2019-03-27T03:26:44.511Z,57.08
2019-03-27T03:29:13.319Z,50.73
2019-03-27T03:31:42.398Z,55.43
2019-03-27T03:34:11.241Z,50.30
2019-03-27T03:36:40.143Z,45.95
2019-03-27T03:39:08.963Z,47.62
2019-03-27T03:41:37.755Z,55.52
2019-03-27T03:44:06.953Z,60.83
2019-03-27T03:46:36.058Z,41.65
2019-03-27T03:49:04.904Z,46.02
2019-03-27T03:51:34.044Z,41.05
2019-03-27T03:54:03.297Z,36.33
2019-03-27T03:56:32.586Z,34.98
2019-03-27T03:59:01.404Z,40.38
2019-03-27T04:01:30.241Z,43.50
2019-03-27T04:03:59.087Z,39.88
2019-03-27T04:06:27.885Z,38.85
2019-03-27T04:08:56.658Z,49.38
2019-03-27T04:11:25.437Z,55.03
2019-03-27T04:13:54.255Z,51.88
2019-03-27T04:16:23.106Z,49.03
2019-03-27T04:18:51.957Z,41.25
2019-03-27T04:21:21.744Z,43.45
2019-03-27T04:23:50.781Z,53.25
2019-03-27T04:26:19.873Z,40.57
2019-03-27T04:28:48.677Z,38.63
2019-03-27T04:31:17.445Z,44.63
2019-03-27T04:33:46.643Z,42.55
2019-03-27T04:36:15.517Z,43.15
2019-03-27T04:38:44.433Z,45.38
2019-03-27T04:41:13.318Z,47.47
2019-03-27T04:43:42.197Z,46.98
2019-03-27T04:46:11.308Z,45.33
2019-03-27T04:48:40.411Z,35.98
2019-03-27T04:51:09.196Z,44.03
2019-03-27T04:53:37.969Z,41.05
2019-03-27T04:56:06.749Z,45.45
2019-03-27T04:58:35.873Z,47.53
2019-03-27T05:01:04.653Z,40.17
2019-03-27T05:03:33.758Z,45.73
2019-03-27T05:06:02.564Z,42.27
2019-03-27T05:08:31.393Z,48.70
2019-03-27T05:11:00.164Z,45.90
2019-03-27T05:13:28.953Z,45.88
2019-03-27T05:15:57.885Z,47.40
2019-03-27T05:18:26.664Z,49.20
2019-03-27T05:20:55.564Z,41.73
2019-03-27T05:23:24.338Z,41.45
2019-03-27T05:25:53.191Z,42.30
2019-03-27T05:28:22.066Z,36.20
2019-03-27T05:30:50.855Z,38.05
2019-03-27T05:33:19.635Z,43.15
2019-03-27T05:35:48.756Z,48.92
2019-03-27T05:38:17.842Z,46.42
2019-03-27T05:40:46.650Z,47.33
2019-03-27T05:43:15.516Z,50.17
2019-03-27T05:45:44.306Z,45.03
2019-03-27T05:48:13.142Z,48.10
2019-03-27T05:50:42.296Z,50.03
2019-03-27T05:53:11.405Z,44.93
2019-03-27T05:55:40.179Z,50.80
2019-03-27T05:58:09.009Z,46.48
2019-03-27T06:00:37.846Z,43.28
2019-03-27T06:03:06.842Z,37.58
2019-03-27T06:05:35.662Z,38.55
2019-03-27T06:08:04.522Z,35.88
2019-03-27T06:10:33.373Z,36.08
2019-03-27T06:13:02.170Z,43.40
2019-03-27T06:15:30.946Z,43.33
2019-03-27T06:18:12.586Z,46.88
2019-03-27T06:20:30.629Z,44.88
2019-03-27T06:22:59.404Z,46.83
2019-03-27T06:25:28.153Z,50.52
2019-03-27T06:27:56.953Z,45.45
2019-03-27T06:30:26.128Z,42.20
2019-03-27T06:32:54.993Z,45.50
2019-03-27T06:35:23.873Z,45.05
2019-03-27T06:37:52.714Z,49.48
2019-03-27T06:40:21.486Z,43.90
2019-03-27T06:42:50.277Z,41.85
2019-03-27T06:45:19.056Z,43.28
2019-03-27T06:47:47.907Z,44.70
2019-03-27T06:50:17.152Z,50.05
2019-03-27T06:52:46.250Z,51.75
2019-03-27T06:55:15.100Z,53.75
2019-03-27T06:57:43.991Z,49.35
2019-03-27T07:00:13.133Z,44.53
2019-03-27T07:02:41.979Z,45.92
2019-03-27T07:05:10.773Z,50.70
2019-03-27T07:07:39.548Z,42.95
2019-03-27T07:10:08.327Z,45.75
2019-03-27T07:12:37.124Z,43.05
2019-03-27T07:15:06.286Z,39.63
2019-03-27T07:17:35.631Z,44.77
2019-03-27T07:20:06.269Z,45.05
2019-03-27T07:22:35.055Z,48.40
2019-03-27T07:25:06.566Z,46.45
2019-03-27T07:27:35.348Z,44.67
2019-03-27T07:30:05.186Z,43.83
2019-03-27T07:32:33.945Z,43.23
2019-03-27T07:35:02.812Z,39.78
2019-03-27T07:37:31.594Z,43.83
2019-03-27T07:40:00.737Z,46.70
2019-03-27T07:42:29.971Z,44.85
2019-03-27T07:44:58.738Z,40.05
2019-03-27T07:47:27.813Z,45.75
2019-03-27T07:49:56.609Z,42.80
2019-03-27T07:52:25.406Z,46.18
2019-03-27T07:54:54.218Z,46.08
2019-03-27T07:57:23.080Z,48.75
2019-03-27T07:59:52.268Z,44.27
2019-03-27T08:02:21.134Z,46.18
2019-03-27T08:04:49.930Z,38.38
2019-03-27T08:07:26.679Z,45.80
2019-03-27T08:09:49.252Z,42.75
2019-03-27T08:12:18.065Z,41.60
2019-03-27T08:14:46.941Z,39.67
2019-03-27T08:17:15.714Z,40.90
2019-03-27T08:19:44.518Z,45.58
2019-03-27T08:22:13.641Z,38.10
2019-03-27T08:24:42.419Z,36.25
2019-03-27T08:27:14.358Z,38.65
2019-03-27T08:29:41.690Z,39.10
2019-03-27T08:32:10.474Z,35.17
2019-03-27T08:34:39.285Z,36.50
2019-03-27T08:37:08.075Z,35.05
2019-03-27T08:39:36.916Z,34.95
2019-03-27T08:42:06.001Z,35.23
2019-03-27T08:44:34.771Z,32.53
2019-03-27T08:47:03.563Z,35.20
2019-03-27T08:49:32.438Z,34.15
2019-03-27T08:52:01.210Z,33.60
2019-03-27T08:54:29.984Z,31.97
2019-03-27T08:56:58.783Z,34.50
2019-03-27T08:59:27.633Z,25.90
2019-03-27T09:01:56.402Z,31.45
2019-03-27T09:04:25.545Z,27.37
2019-03-27T09:06:54.397Z,26.15
2019-03-27T09:09:23.181Z,24.15
2019-03-27T09:11:52.308Z,24.87
2019-03-27T09:14:21.173Z,33.90
2019-03-27T09:16:50.014Z,22.30
2019-03-27T09:19:18.818Z,20.90
2019-03-27T09:21:47.974Z,33.55
2019-03-27T09:24:16.741Z,22.45
2019-03-27T09:26:45.537Z,21.65
2019-03-27T09:29:14.322Z,20.30
2019-03-27T09:31:45.146Z,19.35
2019-03-27T09:34:13.585Z,21.52
2019-03-27T09:36:42.368Z,19.52
2019-03-27T09:39:11.218Z,40.20
2019-03-27T09:41:40.090Z,17.73
2019-03-27T09:44:08.858Z,17.87
2019-03-27T09:46:37.640Z,20.65
2019-03-27T09:49:06.448Z,15.25
2019-03-27T09:51:35.220Z,17.32
2019-03-27T09:54:04.067Z,13.58
2019-03-27T09:56:32.869Z,17.12
2019-03-27T09:59:02.277Z,14.93
2019-03-27T10:01:31.065Z,15.95
2019-03-27T10:04:00.276Z,16.82
2019-03-27T10:06:29.796Z,18.30
2019-03-27T10:08:58.882Z,14.73
2019-03-27T10:11:27.987Z,19.90
2019-03-27T10:13:56.826Z,17.20
2019-03-27T10:16:25.596Z,13.70
2019-03-27T10:18:54.466Z,12.55
2019-03-27T10:21:23.238Z,15.47
2019-03-27T10:23:52.017Z,10.75
2019-03-27T10:26:20.829Z,11.60
2019-03-27T10:28:49.596Z,15.15
2019-03-27T10:31:18.375Z,12.10
2019-03-27T10:33:47.191Z,11.53
2019-03-27T10:36:16.029Z,10.03
2019-03-27T10:38:44.819Z,11.10
2019-03-27T10:41:13.697Z,14.30
2019-03-27T10:43:42.548Z,13.83
2019-03-27T10:46:11.325Z,14.40
2019-03-27T10:48:51.884Z,10.90
2019-03-27T10:51:10.617Z,10.98
2019-03-27T10:53:39.386Z,9.18
2019-03-27T10:56:08.183Z,10.30
2019-03-27T10:58:36.970Z,8.05
2019-03-27T11:01:07.457Z,6.45
2019-03-27T11:03:36.568Z,7.33
2019-03-27T11:06:05.849Z,7.37
2019-03-27T11:08:34.626Z,9.13
2019-03-27T11:11:03.491Z,9.28
2019-03-27T11:13:34.375Z,10.23
2019-03-27T11:16:02.799Z,15.00
2019-03-27T11:18:31.602Z,8.80
2019-03-27T11:21:00.381Z,9.20
2019-03-27T11:23:29.155Z,10.35
2019-03-27T11:25:57.953Z,9.45
2019-03-27T11:28:26.734Z,11.08
2019-03-27T11:30:55.510Z,9.23
2019-03-27T11:33:24.319Z,10.30
2019-03-27T11:35:53.179Z,11.18
2019-03-27T11:38:22.024Z,10.13
2019-03-27T11:40:50.845Z,12.07
2019-03-27T11:43:19.694Z,9.70
2019-03-27T11:45:48.921Z,8.83
2019-03-27T11:48:18.018Z,9.90
2019-03-27T11:50:46.862Z,9.05
2019-03-27T11:53:15.647Z,11.78
2019-03-27T11:55:44.450Z,6.25
2019-03-27T11:58:14.910Z,9.43
2019-03-27T12:00:54.380Z,11.57
2019-03-27T12:03:14.430Z,12.60
2019-03-27T12:05:45.580Z,12.18
2019-03-27T12:08:13.684Z,11.30
2019-03-27T12:10:42.484Z,10.85
2019-03-27T12:13:11.262Z,7.97
2019-03-27T12:15:40.771Z,7.95
2019-03-27T12:18:10.791Z,23.27
2019-03-27T12:20:39.639Z,15.13
2019-03-27T12:23:08.483Z,24.90
2019-03-27T12:25:37.289Z,9.30
2019-03-27T12:28:06.350Z,14.43
2019-03-27T12:30:35.197Z,14.38
2019-03-27T12:33:04.076Z,42.08
2019-03-27T12:35:32.852Z,12.15
2019-03-27T12:38:04.258Z,9.85
2019-03-27T12:40:32.183Z,16.07
2019-03-27T12:43:00.963Z,25.48
2019-03-27T12:45:30.056Z,7.70
2019-03-27T12:47:58.943Z,10.85
2019-03-27T12:50:27.731Z,23.95
2019-03-27T12:52:56.833Z,21.00
2019-03-27T12:55:25.694Z,10.18
2019-03-27T12:57:54.542Z,8.28
2019-03-27T13:00:23.308Z,12.15
2019-03-27T13:02:52.124Z,10.30
2019-03-27T13:05:20.899Z,9.68
2019-03-27T13:07:50.467Z,10.30
2019-03-27T13:10:19.430Z,9.40
2019-03-27T13:12:48.204Z,8.48
2019-03-27T13:15:17.065Z,9.50
2019-03-27T13:17:45.939Z,11.22
2019-03-27T13:20:14.779Z,9.75
2019-03-27T13:22:43.620Z,8.15
2019-03-27T13:25:12.479Z,8.30
2019-03-27T13:27:41.280Z,9.90
2019-03-27T13:30:10.114Z,8.85
2019-03-27T13:32:38.915Z,6.87
2019-03-27T13:35:07.837Z,6.53
2019-03-27T13:37:36.607Z,8.35
2019-03-27T13:40:08.536Z,6.67
2019-03-27T13:42:37.299Z,6.67
2019-03-27T13:45:06.777Z,6.95
2019-03-27T13:47:35.756Z,6.22
2019-03-27T13:50:07.350Z,7.15
2019-03-27T13:52:36.194Z,7.15
2019-03-27T13:55:06.992Z,9.80
2019-03-27T13:57:36.413Z,12.68
2019-03-27T14:00:08.798Z,12.47
2019-03-27T14:02:37.980Z,13.33
2019-03-27T14:05:06.831Z,22.13
2019-03-27T14:07:35.973Z,9.95
2019-03-27T14:10:07.517Z,11.95
2019-03-27T14:12:36.387Z,25.92
2019-03-27T14:15:08.074Z,12.05
2019-03-27T14:17:37.027Z,7.62
2019-03-27T14:20:07.590Z,22.10
2019-03-27T14:22:36.811Z,34.55
2019-03-27T14:25:08.862Z,21.23
2019-03-27T14:27:37.709Z,12.65
2019-03-27T14:30:08.917Z,12.93
2019-03-27T14:32:37.725Z,10.20
2019-03-27T14:35:06.672Z,9.05
2019-03-27T14:37:35.519Z,26.97
2019-03-27T14:40:07.383Z,30.90
2019-03-27T14:42:36.261Z,18.27
2019-03-27T14:45:07.232Z,8.05
2019-03-27T14:47:36.686Z,14.40
2019-03-27T14:50:07.679Z,28.32
2019-03-27T14:52:36.447Z,14.73
2019-03-27T14:55:07.192Z,14.07
2019-03-27T14:57:36.838Z,6.15
2019-03-27T15:00:09.622Z,13.55
2019-03-27T15:02:38.512Z,29.83
2019-03-27T15:05:08.043Z,30.65
2019-03-27T15:07:36.829Z,18.85
2019-03-27T15:10:09.132Z,16.35
2019-03-27T15:12:37.919Z,13.65
2019-03-27T15:15:08.393Z,14.00
2019-03-27T15:17:37.634Z,8.15
2019-03-27T15:20:08.098Z,12.33
2019-03-27T15:22:36.868Z,22.40
2019-03-27T15:25:08.049Z,19.10
2019-03-27T15:27:36.869Z,15.00
2019-03-27T15:30:06.621Z,11.22
2019-03-27T15:32:36.651Z,11.75
2019-03-27T15:35:05.524Z,9.53
2019-03-27T15:37:35.169Z,22.35
2019-03-27T15:40:05.451Z,18.52
2019-03-27T15:42:34.431Z,13.58
2019-03-27T15:45:05.896Z,18.35
2019-03-27T15:47:34.768Z,11.80
2019-03-27T15:50:04.889Z,8.43
2019-03-27T15:52:36.639Z,12.73
2019-03-27T15:55:04.620Z,18.42
2019-03-27T15:57:34.282Z,17.42
2019-03-27T16:00:04.695Z,64.10
2019-03-27T16:02:33.488Z,18.20
2019-03-27T16:05:02.532Z,92.00
2019-03-27T16:07:31.646Z,11.95
2019-03-27T16:10:00.501Z,10.80
2019-03-27T16:12:29.288Z,10.38
2019-03-27T16:14:58.106Z,12.53
2019-03-27T16:17:26.939Z,11.22
2019-03-27T16:19:55.798Z,11.68
2019-03-27T16:22:24.904Z,37.10
2019-03-27T16:24:53.717Z,11.43
2019-03-27T16:27:22.568Z,15.90
2019-03-27T16:29:51.411Z,14.65
2019-03-27T16:32:20.273Z,12.37
2019-03-27T16:34:49.064Z,8.38
2019-03-27T16:37:17.902Z,13.83
2019-03-27T16:39:46.782Z,15.00
2019-03-27T16:42:15.587Z,11.57
2019-03-27T16:44:44.424Z,9.43
2019-03-27T16:47:13.519Z,12.95
2019-03-27T16:49:42.366Z,8.25
2019-03-27T16:52:11.269Z,7.50
2019-03-27T16:54:40.057Z,14.07
2019-03-27T16:57:08.852Z,8.85
2019-03-27T16:59:37.624Z,15.95
2019-03-27T17:02:06.914Z,13.22
2019-03-27T17:04:35.693Z,16.27
2019-03-27T17:07:04.495Z,19.82
2019-03-27T17:09:33.385Z,11.95
2019-03-27T17:12:02.174Z,9.45
2019-03-27T17:14:31.030Z,8.95
2019-03-27T17:16:59.902Z,13.03
2019-03-27T17:19:28.700Z,12.37
2019-03-27T17:21:57.494Z,20.72
2019-03-27T17:24:26.383Z,18.82
2019-03-27T17:26:55.223Z,13.62
2019-03-27T17:29:24.076Z,12.25
2019-03-27T17:31:52.953Z,14.85
2019-03-27T17:34:21.812Z,10.90
2019-03-27T17:36:50.632Z,17.55
2019-03-27T17:39:19.485Z,18.37
2019-03-27T17:41:48.273Z,12.80
2019-03-27T17:44:17.123Z,15.43
2019-03-27T17:46:45.951Z,11.75
2019-03-27T17:49:14.789Z,10.72
2019-03-27T17:51:43.574Z,15.08
2019-03-27T17:54:20.557Z,13.65
2019-03-27T17:56:43.639Z,16.15
2019-03-27T17:59:13.600Z,12.10
2019-03-27T18:01:43.053Z,9.00
2019-03-27T18:04:12.310Z,13.62
2019-03-27T18:06:41.077Z,12.47
2019-03-27T18:09:09.977Z,9.98
2019-03-27T18:11:38.814Z,12.13
2019-03-27T18:14:07.586Z,9.68
2019-03-27T18:16:36.410Z,10.15
2019-03-27T18:19:05.263Z,8.63
2019-03-27T18:21:34.119Z,11.75
2019-03-27T18:24:02.996Z,9.70
2019-03-27T18:26:31.980Z,10.15
2019-03-27T18:29:00.841Z,8.15
2019-03-27T18:31:29.728Z,13.95
2019-03-27T18:33:58.577Z,14.13
2019-03-27T18:36:27.630Z,14.47
2019-03-27T18:38:56.477Z,11.45
2019-03-27T18:41:25.356Z,12.17
2019-03-27T18:43:54.520Z,12.75
2019-03-27T18:46:23.428Z,12.40
2019-03-27T18:48:52.389Z,14.38
2019-03-27T18:51:21.225Z,12.30
2019-03-27T18:53:59.603Z,14.87
2019-03-27T18:56:20.532Z,16.03
2019-03-27T18:58:49.615Z,15.85
2019-03-27T19:01:18.510Z,16.20
2019-03-27T19:03:47.294Z,15.90
2019-03-27T19:06:16.149Z,13.80
2019-03-27T19:08:44.944Z,17.17
2019-03-27T19:11:13.723Z,16.60
2019-03-27T19:13:42.517Z,15.70
2019-03-27T19:16:11.333Z,16.20
2019-03-27T19:18:40.196Z,15.90
2019-03-27T19:21:08.987Z,13.98
2019-03-27T19:23:37.843Z,19.48
2019-03-27T19:26:06.899Z,15.68
2019-03-27T19:28:35.991Z,15.35
2019-03-27T19:31:04.972Z,18.87
2019-03-27T19:33:33.820Z,16.10
2019-03-27T19:36:02.605Z,19.87
2019-03-27T19:38:31.784Z,17.37
2019-03-27T19:41:00.620Z,19.77
2019-03-27T19:43:29.480Z,16.87
2019-03-27T19:45:58.369Z,13.80
2019-03-27T19:48:27.140Z,21.25
2019-03-27T19:50:55.930Z,19.32
2019-03-27T19:53:24.723Z,14.00
2019-03-27T19:55:53.498Z,17.02
2019-03-27T19:58:22.267Z,12.90
2019-03-27T20:00:51.163Z,16.25
2019-03-27T20:03:20.005Z,16.20
2019-03-27T20:05:49.103Z,16.02
2019-03-27T20:08:17.916Z,14.05
2019-03-27T20:10:46.702Z,14.90
2019-03-27T20:13:15.662Z,15.65
2019-03-27T20:15:44.555Z,14.55
2019-03-27T20:18:13.399Z,18.70
2019-03-27T20:20:42.565Z,13.20
2019-03-27T20:23:15.150Z,13.48
2019-03-27T20:25:41.912Z,14.18
2019-03-27T20:28:10.763Z,13.30
2019-03-27T20:30:39.594Z,14.43
2019-03-27T20:33:08.443Z,15.38
2019-03-27T20:35:37.222Z,15.85
2019-03-27T20:38:06.096Z,13.50
2019-03-27T20:40:34.935Z,15.80
2019-03-27T20:43:03.701Z,16.45
2019-03-27T20:45:32.494Z,13.45
2019-03-27T20:48:01.371Z,18.25
2019-03-27T20:50:30.143Z,18.02
2019-03-27T20:52:59.042Z,20.88
2019-03-27T20:55:30.450Z,19.95
2019-03-27T20:57:58.308Z,14.68
2019-03-27T21:00:27.188Z,17.65
2019-03-27T21:02:56.029Z,25.85
2019-03-27T21:05:24.812Z,43.55
2019-03-27T21:07:53.629Z,52.05
2019-03-27T21:10:22.402Z,50.78
2019-03-27T21:12:51.179Z,56.20
2019-03-27T21:15:20.071Z,56.92
2019-03-27T21:17:48.866Z,40.52
2019-03-27T21:20:17.711Z,35.08
2019-03-27T21:22:46.519Z,22.65
2019-03-27T21:25:15.360Z,19.32
2019-03-27T21:27:44.149Z,18.65
2019-03-27T21:30:12.987Z,22.48
2019-03-27T21:32:41.899Z,23.57
2019-03-27T21:35:10.852Z,19.60
2019-03-27T21:37:40.187Z,22.32
2019-03-27T21:40:09.166Z,19.42
2019-03-27T21:42:38.065Z,17.85
2019-03-27T21:45:08.940Z,17.77
2019-03-27T21:47:37.840Z,18.30
2019-03-27T21:50:07.925Z,22.10
2019-03-27T21:52:36.845Z,17.40
2019-03-27T21:55:06.835Z,15.05
2019-03-27T21:57:35.745Z,17.37
2019-03-27T22:00:05.983Z,22.93
2019-03-27T22:02:34.886Z,18.80
2019-03-27T22:05:04.529Z,21.00
2019-03-27T22:07:33.763Z,21.23
2019-03-27T22:10:02.961Z,21.60
2019-03-27T22:12:31.858Z,20.12
2019-03-27T22:15:00.793Z,20.45
2019-03-27T22:17:29.697Z,20.77
2019-03-27T22:19:58.594Z,21.87
2019-03-27T22:22:27.524Z,21.05
2019-03-27T22:24:56.716Z,22.65
2019-03-27T22:27:25.915Z,21.55
2019-03-27T22:29:54.923Z,24.67
2019-03-27T22:32:23.834Z,23.15
2019-03-27T22:34:52.756Z,23.75
2019-03-27T22:37:21.702Z,22.67
2019-03-27T22:39:50.619Z,27.15
2019-03-27T22:42:19.519Z,22.17
2019-03-27T22:44:48.447Z,24.37
2019-03-27T22:47:17.671Z,21.97
2019-03-27T22:49:46.590Z,26.90
2019-03-27T22:52:15.513Z,21.82
2019-03-27T22:54:44.457Z,21.02
2019-03-27T22:57:13.365Z,21.73
2019-03-27T22:59:42.308Z,24.57
2019-03-27T23:02:11.215Z,23.67
2019-03-27T23:04:40.442Z,23.18
2019-03-27T23:07:09.368Z,20.32
2019-03-27T23:09:38.623Z,22.60
2019-03-27T23:12:07.818Z,22.70
2019-03-27T23:14:36.778Z,23.45
2019-03-27T23:17:05.688Z,23.42
2019-03-27T23:19:34.582Z,20.77
2019-03-27T23:22:03.523Z,23.95
2019-03-27T23:24:32.418Z,23.45
2019-03-27T23:27:01.315Z,22.35
2019-03-27T23:29:30.247Z,23.05
2019-03-27T23:31:59.141Z,21.80
2019-03-27T23:34:28.033Z,25.08
2019-03-27T23:36:56.978Z,22.90
2019-03-27T23:39:25.932Z,20.88
2019-03-27T23:41:54.825Z,20.40
2019-03-27T23:44:24.053Z,24.77
2019-03-27T23:46:53.023Z,21.27
2019-03-27T23:49:21.937Z,23.20
2019-03-27T23:51:50.873Z,22.98
2019-03-27T23:54:19.786Z,20.35
2019-03-27T23:56:48.765Z,22.98
2019-03-27T23:59:18.060Z,24.52
